ěÝzenÝ letovÚho provozu ╚eskÚ republiky
Letiste: LKKB Aktualizace: 27.02.2020 02:00:28  UTC
 METAR LKKB 27.02. 02:00 ...
METAR LKKB 270200Z 23012KT 9999 BKN030 02/M02 Q1003 RMK BLU=
 TAF LKKB 26.02. 23:00 ...
TAF LKKB 262300Z 2700/2800 24012KT CAVOK      TEMPO 2700/2712 27016G28KT      PROB40 TEMPO 2700/2718 8000 SHRASN BKN020      BECMG 2718/2720 16010KT=